Time;durP1;ratioP1;P1;durP2;ratioP2;P2;SDS_P1;SDS_P2;PMS_P1;PMS_P2;Temp;Humidity;BMP_temperature;BMP_pressure;BME280_temperature;BME280_humidity;BME280_pressure;Samples;Min_cycle;Max_cycle;Signal;HPM_P1;HPM_P2
2023/05/12 00:00:33;;;;;;;45.05;25.48;;;;;;;;;;6184830;23;20020;-81
2023/05/12 00:03:02;;;;;;;40.20;24.20;;;;;;;;;;6133224;23;20019;-82
2023/05/12 00:05:28;;;;;;;49.17;27.83;;;;;;;;;;6133375;23;20079;-81
2023/05/12 00:07:55;;;;;;;48.13;27.23;;;;;;;;;;6133747;23;20157;-81
2023/05/12 00:10:21;;;;;;;48.78;27.80;;;;;;;;;;6132902;23;20165;-81
2023/05/12 00:12:47;;;;;;;45.75;28.02;;;;;;;;;;6158784;23;20009;-81
2023/05/12 00:15:13;;;;;;;50.42;28.83;;;;;;;;;;6157772;23;20044;-81
2023/05/12 00:17:39;;;;;;;63.58;30.92;;;;;;;;;;6158001;23;20068;-80
2023/05/12 00:20:06;;;;;;;59.53;31.10;;;;;;;;;;6184267;23;20314;-81
2023/05/12 00:22:32;;;;;;;47.50;28.80;;;;;;;;;;6133513;23;20021;-80
2023/05/12 00:24:58;;;;;;;52.53;30.08;;;;;;;;;;6157054;23;20019;-80
2023/05/12 00:27:24;;;;;;;57.42;30.95;;;;;;;;;;6158130;23;20021;-81
2023/05/12 00:29:50;;;;;;;52.13;30.65;;;;;;;;;;6157259;23;20139;-81
2023/05/12 00:32:16;;;;;;;54.72;30.85;;;;;;;;;;6133033;23;20040;-80
2023/05/12 00:34:42;;;;;;;61.47;30.98;;;;;;;;;;6158057;23;20044;-80
2023/05/12 00:37:08;;;;;;;72.15;31.80;;;;;;;;;;6133187;23;20367;-81
2023/05/12 00:39:35;;;;;;;54.03;29.60;;;;;;;;;;6157455;23;20095;-81
2023/05/12 00:42:01;;;;;;;66.13;32.78;;;;;;;;;;6157287;23;20053;-80
2023/05/12 00:44:27;;;;;;;66.13;33.33;;;;;;;;;;6132687;23;20049;-81
2023/05/12 00:46:54;;;;;;;65.93;34.50;;;;;;;;;;6132772;23;20040;-81
2023/05/12 00:49:20;;;;;;;74.88;36.78;;;;;;;;;;6132513;23;20344;-80
2023/05/12 00:51:46;;;;;;;84.63;38.00;;;;;;;;;;6183516;23;20016;-81
2023/05/12 00:54:12;;;;;;;78.20;38.92;;;;;;;;;;6131955;23;20040;-81
2023/05/12 00:56:38;;;;;;;84.65;39.42;;;;;;;;;;6157430;23;20045;-81
2023/05/12 00:59:05;;;;;;;87.90;38.47;;;;;;;;;;6132766;23;20013;-81
2023/05/12 01:01:32;;;;;;;91.88;42.22;;;;;;;;;;6157325;23;20017;-81
2023/05/12 01:03:58;;;;;;;80.70;39.05;;;;;;;;;;6184441;23;20013;-80
2023/05/12 01:06:24;;;;;;;85.57;40.80;;;;;;;;;;6132891;23;20040;-80
2023/05/12 01:08:51;;;;;;;82.20;40.17;;;;;;;;;;6157453;23;20009;-82
2023/05/12 01:11:17;;;;;;;73.45;36.63;;;;;;;;;;6157690;23;20044;-81
2023/05/12 01:13:43;;;;;;;81.63;37.75;;;;;;;;;;6183576;23;20052;-80
2023/05/12 01:16:12;;;;;;;75.47;38.70;;;;;;;;;;6152206;23;20049;-80
2023/05/12 01:18:39;;;;;;;73.97;37.30;;;;;;;;;;6152699;23;20105;-81
2023/05/12 01:21:06;;;;;;;79.35;36.92;;;;;;;;;;6127547;23;20017;-80
2023/05/12 01:23:35;;;;;;;81.28;38.90;;;;;;;;;;6126897;23;20017;-81
2023/05/12 01:26:06;;;;;;;71.05;36.05;;;;;;;;;;6127156;23;20464;-79
2023/05/12 01:28:32;;;;;;;67.78;37.17;;;;;;;;;;6153676;23;20021;-81
2023/05/12 01:30:59;;;;;;;71.18;37.15;;;;;;;;;;6152134;23;20105;-81
2023/05/12 01:33:25;;;;;;;79.90;37.70;;;;;;;;;;6127750;23;20049;-80
2023/05/12 01:35:51;;;;;;;75.10;37.42;;;;;;;;;;6127332;23;20041;-80
2023/05/12 01:38:17;;;;;;;61.63;36.30;;;;;;;;;;6151216;23;20092;-81
2023/05/12 01:40:43;;;;;;;67.18;38.22;;;;;;;;;;6152091;23;20025;-81
2023/05/12 01:43:09;;;;;;;68.15;37.17;;;;;;;;;;6127628;23;20021;-80
2023/05/12 01:45:35;;;;;;;63.30;35.97;;;;;;;;;;6152432;23;20017;-81
2023/05/12 01:48:01;;;;;;;63.97;34.53;;;;;;;;;;6153714;23;20037;-81
2023/05/12 01:50:28;;;;;;;74.32;37.85;;;;;;;;;;6152107;23;20017;-81
2023/05/12 01:52:54;;;;;;;65.63;38.05;;;;;;;;;;6153582;23;20013;-80
2023/05/12 01:55:20;;;;;;;65.07;37.45;;;;;;;;;;6153786;23;20013;-81
2023/05/12 01:57:46;;;;;;;77.10;40.13;;;;;;;;;;6151985;23;20014;-80
2023/05/12 02:00:12;;;;;;;63.30;37.45;;;;;;;;;;6151561;23;20017;-80
2023/05/12 02:02:38;;;;;;;68.70;38.35;;;;;;;;;;6151848;23;20092;-81
2023/05/12 02:05:04;;;;;;;78.70;41.30;;;;;;;;;;6127297;23;20341;-81
2023/05/12 02:07:30;;;;;;;74.95;40.45;;;;;;;;;;6151613;23;20018;-80
2023/05/12 02:09:56;;;;;;;66.20;38.88;;;;;;;;;;6151568;23;20452;-80
2023/05/12 02:12:22;;;;;;;73.78;40.60;;;;;;;;;;6152977;23;20109;-81
2023/05/12 02:14:48;;;;;;;67.80;40.80;;;;;;;;;;6152376;23;20014;-81
2023/05/12 02:17:15;;;;;;;74.53;41.80;;;;;;;;;;6156863;23;20048;-81
2023/05/12 02:19:41;;;;;;;65.60;41.78;;;;;;;;;;6183408;23;20048;-81
2023/05/12 02:22:07;;;;;;;71.03;40.78;;;;;;;;;;6156458;23;20399;-81
2023/05/12 02:24:34;;;;;;;82.32;42.35;;;;;;;;;;6183070;23;20036;-81
2023/05/12 02:27:00;;;;;;;84.78;43.97;;;;;;;;;;6156816;23;20317;-81
2023/05/12 02:29:26;;;;;;;71.50;41.47;;;;;;;;;;6183147;23;20013;-81
2023/05/12 02:31:52;;;;;;;74.60;41.03;;;;;;;;;;6156215;23;20024;-80
2023/05/12 02:34:18;;;;;;;59.05;35.90;;;;;;;;;;6183003;23;20016;-81
2023/05/12 02:36:44;;;;;;;77.05;42.25;;;;;;;;;;6131334;23;20347;-80
2023/05/12 02:39:10;;;;;;;80.28;41.85;;;;;;;;;;6131749;23;20020;-81
2023/05/12 02:41:36;;;;;;;78.18;40.92;;;;;;;;;;6131873;23;20067;-81
2023/05/12 02:44:02;;;;;;;79.25;41.97;;;;;;;;;;6156592;23;20452;-81
2023/05/12 02:46:28;;;;;;;81.97;42.10;;;;;;;;;;6183051;23;20093;-81
2023/05/12 02:48:54;;;;;;;81.35;41.65;;;;;;;;;;6183003;23;20040;-81
2023/05/12 02:51:20;;;;;;;86.28;42.05;;;;;;;;;;6182244;23;20051;-81
2023/05/12 02:53:46;;;;;;;77.60;41.17;;;;;;;;;;6133092;23;20047;-81
2023/05/12 02:56:12;;;;;;;75.47;40.28;;;;;;;;;;6158576;23;20013;-81
2023/05/12 02:58:38;;;;;;;72.03;40.42;;;;;;;;;;6133754;23;20013;-80
2023/05/12 03:01:04;;;;;;;78.13;42.03;;;;;;;;;;6133608;23;20013;-81
2023/05/12 03:03:30;;;;;;;72.93;41.53;;;;;;;;;;6158757;23;20017;-81
2023/05/12 03:05:56;;;;;;;77.93;39.72;;;;;;;;;;6184590;23;20037;-81
2023/05/12 03:08:23;;;;;;;74.05;39.85;;;;;;;;;;6158552;23;20492;-81
2023/05/12 03:10:49;;;;;;;87.53;43.38;;;;;;;;;;6158730;23;20013;-81
2023/05/12 03:13:15;;;;;;;86.70;41.75;;;;;;;;;;6158851;23;20013;-81
2023/05/12 03:15:41;;;;;;;77.15;42.65;;;;;;;;;;6157979;23;20028;-81
2023/05/12 03:18:07;;;;;;;76.10;41.53;;;;;;;;;;6134082;23;20021;-81
2023/05/12 03:20:33;;;;;;;88.43;43.03;;;;;;;;;;6157609;23;20016;-81
2023/05/12 03:22:59;;;;;;;78.32;41.90;;;;;;;;;;6158816;23;20016;-81
2023/05/12 03:25:25;;;;;;;83.13;43.10;;;;;;;;;;6158910;23;20369;-81
2023/05/12 03:27:51;;;;;;;95.72;45.75;;;;;;;;;;6184728;23;20021;-81
2023/05/12 03:30:17;;;;;;;82.55;44.15;;;;;;;;;;6133438;23;20019;-81
2023/05/12 03:32:45;;;;;;;88.13;44.58;;;;;;;;;;6158523;23;20013;-80
2023/05/12 03:35:11;;;;;;;84.55;44.53;;;;;;;;;;6133395;23;20024;-81
2023/05/12 03:37:37;;;;;;;79.05;43.90;;;;;;;;;;6133442;23;20012;-81
2023/05/12 03:40:03;;;;;;;83.88;44.28;;;;;;;;;;6133750;23;20100;-80
2023/05/12 03:42:32;;;;;;;82.20;41.75;;;;;;;;;;6133403;23;20016;-81
2023/05/12 03:44:58;;;;;;;88.78;46.00;;;;;;;;;;6133027;23;20046;-81
2023/05/12 03:47:24;;;;;;;93.97;44.95;;;;;;;;;;6158135;23;20048;-81
2023/05/12 03:49:50;;;;;;;85.47;44.58;;;;;;;;;;6183765;23;20020;-80
2023/05/12 03:52:16;;;;;;;88.07;43.13;;;;;;;;;;6157762;23;20088;-81
2023/05/12 03:54:42;;;;;;;84.38;43.72;;;;;;;;;;6133114;23;20361;-81
2023/05/12 03:57:08;;;;;;;74.75;43.33;;;;;;;;;;6185070;23;20092;-82
2023/05/12 03:59:34;;;;;;;77.60;42.25;;;;;;;;;;6185135;23;20041;-81
2023/05/12 04:02:00;;;;;;;92.30;44.80;;;;;;;;;;6158210;23;20013;-82
2023/05/12 04:04:26;;;;;;;90.78;45.50;;;;;;;;;;6132096;23;20052;-81
2023/05/12 04:06:52;;;;;;;85.88;43.00;;;;;;;;;;6133810;23;20077;-80
2023/05/12 04:09:20;;;;;;;95.28;45.25;;;;;;;;;;6184375;23;20013;-81
2023/05/12 04:11:46;;;;;;;68.30;40.13;;;;;;;;;;6184230;23;20047;-80
2023/05/12 04:14:12;;;;;;;114.07;47.17;;;;;;;;;;6184645;23;20021;-81
2023/05/12 04:16:39;;;;;;;80.85;43.28;;;;;;;;;;6156857;23;20013;-81
2023/05/12 04:19:05;;;;;;;86.32;43.47;;;;;;;;;;6133081;23;20057;-81
2023/05/12 04:21:31;;;;;;;80.00;43.08;;;;;;;;;;6157550;23;20055;-80
2023/05/12 04:23:58;;;;;;;73.47;40.80;;;;;;;;;;6184256;23;20017;-81
2023/05/12 04:26:25;;;;;;;81.20;43.50;;;;;;;;;;6133182;23;20021;-80
2023/05/12 04:28:52;;;;;;;90.78;43.10;;;;;;;;;;6158057;23;20017;-80
2023/05/12 04:31:18;;;;;;;91.72;44.08;;;;;;;;;;6132288;23;20048;-80
2023/05/12 04:33:44;;;;;;;87.05;44.25;;;;;;;;;;6157353;23;20071;-81
2023/05/12 04:36:12;;;;;;;87.65;43.38;;;;;;;;;;6183993;23;20380;-80
2023/05/12 04:38:39;;;;;;;92.22;44.90;;;;;;;;;;6157678;23;20183;-80
2023/05/12 04:41:05;;;;;;;86.57;43.17;;;;;;;;;;6183848;23;20021;-81
2023/05/12 04:43:31;;;;;;;78.90;42.33;;;;;;;;;;6157321;23;20048;-81
2023/05/12 04:45:57;;;;;;;86.07;42.13;;;;;;;;;;6131850;23;20062;-81
2023/05/12 04:48:23;;;;;;;84.78;44.40;;;;;;;;;;6157235;23;20020;-81
2023/05/12 04:50:49;;;;;;;93.03;44.80;;;;;;;;;;6132740;23;20009;-81
2023/05/12 04:53:16;;;;;;;80.65;42.03;;;;;;;;;;6157963;23;20017;-80
2023/05/12 04:55:44;;;;;;;88.55;44.53;;;;;;;;;;6157475;23;20013;-81
2023/05/12 04:58:11;;;;;;;75.75;42.63;;;;;;;;;;6132482;23;20016;-81
2023/05/12 05:00:37;;;;;;;71.30;40.03;;;;;;;;;;6131659;23;20448;-80
2023/05/12 05:03:03;;;;;;;103.30;46.20;;;;;;;;;;6157048;23;20066;-81
2023/05/12 05:05:31;;;;;;;99.15;46.65;;;;;;;;;;6157219;23;20017;-81
2023/05/12 05:07:57;;;;;;;88.07;44.90;;;;;;;;;;6132492;23;20013;-81
2023/05/12 05:10:24;;;;;;;80.38;43.95;;;;;;;;;;6183528;23;20063;-81
2023/05/12 05:12:50;;;;;;;85.88;44.97;;;;;;;;;;6132307;23;20009;-80
2023/05/12 05:15:16;;;;;;;70.50;41.97;;;;;;;;;;6131201;23;20555;-81
2023/05/12 05:17:42;;;;;;;82.88;43.10;;;;;;;;;;6157299;23;20056;-80
2023/05/12 05:20:09;;;;;;;80.13;43.83;;;;;;;;;;6131860;23;20023;-80
2023/05/12 05:22:38;;;;;;;76.97;41.65;;;;;;;;;;6157070;23;20091;-81
2023/05/12 05:25:04;;;;;;;74.68;42.42;;;;;;;;;;6157203;23;20013;-80
2023/05/12 05:27:30;;;;;;;73.43;42.33;;;;;;;;;;6132198;23;20013;-80
2023/05/12 05:29:56;;;;;;;88.70;42.90;;;;;;;;;;6156420;23;20142;-81
2023/05/12 05:32:23;;;;;;;71.22;42.30;;;;;;;;;;6157356;23;20348;-81
2023/05/12 05:34:49;;;;;;;76.00;42.97;;;;;;;;;;6132356;23;20052;-81
2023/05/12 05:37:16;;;;;;;72.40;42.40;;;;;;;;;;6158422;23;20009;-82
2023/05/12 05:39:42;;;;;;;73.35;42.28;;;;;;;;;;6132109;23;20410;-81
2023/05/12 05:42:08;;;;;;;78.30;43.63;;;;;;;;;;6157284;23;20017;-81
2023/05/12 05:44:35;;;;;;;66.22;40.33;;;;;;;;;;6131976;23;20083;-81
2023/05/12 05:47:01;;;;;;;83.15;45.10;;;;;;;;;;6156836;23;20084;-81
2023/05/12 05:49:27;;;;;;;70.47;42.72;;;;;;;;;;6131992;23;20072;-81
2023/05/12 05:51:54;;;;;;;71.05;42.67;;;;;;;;;;6132188;23;20013;-81
2023/05/12 05:54:20;;;;;;;66.85;40.60;;;;;;;;;;6183315;23;20015;-81
2023/05/12 05:56:46;;;;;;;58.65;38.55;;;;;;;;;;6132518;23;20290;-80
2023/05/12 05:59:13;;;;;;;65.80;41.65;;;;;;;;;;6131707;23;20031;-81
2023/05/12 06:01:39;;;;;;;65.78;38.80;;;;;;;;;;6132140;23;20017;-81
2023/05/12 06:04:05;;;;;;;69.88;41.65;;;;;;;;;;6157163;23;20013;-81
2023/05/12 06:06:31;;;;;;;73.82;42.92;;;;;;;;;;6132066;23;20096;-81
2023/05/12 06:08:57;;;;;;;75.18;41.85;;;;;;;;;;6183271;23;20013;-82
2023/05/12 06:11:23;;;;;;;62.63;39.92;;;;;;;;;;6156567;23;20451;-81
2023/05/12 06:13:49;;;;;;;62.03;39.58;;;;;;;;;;6130867;23;20013;-82
2023/05/12 06:16:15;;;;;;;61.33;38.13;;;;;;;;;;6131005;23;20013;-81
2023/05/12 06:18:41;;;;;;;66.30;39.83;;;;;;;;;;6155638;23;20095;-82
2023/05/12 06:21:08;;;;;;;60.47;38.80;;;;;;;;;;6182574;23;20072;-82
2023/05/12 06:23:34;;;;;;;62.17;38.58;;;;;;;;;;6182686;23;20017;-82
2023/05/12 06:26:00;;;;;;;71.68;41.28;;;;;;;;;;6130552;23;20020;-83
2023/05/12 06:28:26;;;;;;;65.32;38.90;;;;;;;;;;6151457;23;20021;-83
2023/05/12 06:30:52;;;;;;;57.28;38.80;;;;;;;;;;6130786;23;20343;-82
2023/05/12 06:33:18;;;;;;;66.82;40.65;;;;;;;;;;6130837;23;20063;-83
2023/05/12 06:35:44;;;;;;;59.55;39.88;;;;;;;;;;6155491;23;20389;-83
2023/05/12 06:38:10;;;;;;;70.65;41.30;;;;;;;;;;6181878;23;20016;-83
2023/05/12 06:40:36;;;;;;;67.63;40.30;;;;;;;;;;6130973;23;20060;-83
2023/05/12 06:43:02;;;;;;;72.32;41.80;;;;;;;;;;6155433;23;20152;-82
2023/05/12 06:45:29;;;;;;;71.18;41.72;;;;;;;;;;6181779;23;20017;-82
2023/05/12 06:47:57;;;;;;;70.20;40.25;;;;;;;;;;6154774;23;20042;-82
2023/05/12 06:50:23;;;;;;;62.22;37.10;;;;;;;;;;6130806;23;20104;-82
2023/05/12 06:52:49;;;;;;;72.25;40.75;;;;;;;;;;6182243;23;20035;-82
2023/05/12 06:55:18;;;;;;;58.72;40.63;;;;;;;;;;6181988;23;20009;-82
2023/05/12 06:57:44;;;;;;;68.53;39.60;;;;;;;;;;6129814;23;20458;-82
2023/05/12 07:00:10;;;;;;;68.05;38.65;;;;;;;;;;6181732;23;20021;-82
2023/05/12 07:02:36;;;;;;;70.47;41.30;;;;;;;;;;6181930;23;20021;-83
2023/05/12 07:05:02;;;;;;;69.35;41.95;;;;;;;;;;6130561;23;20094;-83
2023/05/12 07:07:28;;;;;;;63.15;40.72;;;;;;;;;;6130415;23;20089;-83
2023/05/12 07:09:55;;;;;;;68.43;40.55;;;;;;;;;;6155139;23;20043;-83
2023/05/12 07:12:21;;;;;;;67.90;40.55;;;;;;;;;;6154554;23;20116;-83
2023/05/12 07:14:47;;;;;;;63.35;39.13;;;;;;;;;;6181830;23;20194;-83
2023/05/12 07:17:13;;;;;;;58.25;37.50;;;;;;;;;;6130254;23;20123;-83
2023/05/12 07:19:39;;;;;;;65.78;39.60;;;;;;;;;;6181800;23;20148;-83
2023/05/12 07:22:05;;;;;;;63.20;39.58;;;;;;;;;;6130794;23;20317;-83
2023/05/12 07:24:31;;;;;;;52.72;37.72;;;;;;;;;;6130746;23;20043;-82
2023/05/12 07:26:57;;;;;;;54.17;37.78;;;;;;;;;;6154438;23;20040;-82
2023/05/12 07:29:23;;;;;;;56.03;38.33;;;;;;;;;;6155198;23;20381;-87
2023/05/12 07:31:49;;;;;;;48.33;36.42;;;;;;;;;;6180446;23;20009;-83
2023/05/12 07:34:16;;;;;;;54.38;38.28;;;;;;;;;;6154909;23;20013;-83
2023/05/12 07:36:42;;;;;;;55.25;37.75;;;;;;;;;;6154999;23;20021;-83
2023/05/12 07:39:08;;;;;;;52.42;37.70;;;;;;;;;;6131629;23;20017;-83
2023/05/12 07:41:34;;;;;;;49.88;37.78;;;;;;;;;;6131910;23;20368;-83
2023/05/12 07:44:01;;;;;;;56.45;36.83;;;;;;;;;;6157028;23;20060;-83
2023/05/12 07:46:27;;;;;;;48.45;36.85;;;;;;;;;;6156958;23;20016;-84
2023/05/12 07:48:53;;;;;;;45.55;34.72;;;;;;;;;;6157036;23;20013;-84
2023/05/12 07:51:19;;;;;;;45.50;34.95;;;;;;;;;;6157301;23;20076;-84
2023/05/12 07:53:45;;;;;;;48.00;34.75;;;;;;;;;;6183678;23;20013;-84
2023/05/12 07:56:11;;;;;;;44.65;34.83;;;;;;;;;;6183043;23;20088;-84
2023/05/12 07:58:37;;;;;;;44.15;34.05;;;;;;;;;;6157023;23;20040;-83
2023/05/12 08:01:05;;;;;;;47.28;36.25;;;;;;;;;;6183759;23;20009;-84
2023/05/12 08:03:32;;;;;;;45.88;36.13;;;;;;;;;;6132294;23;20020;-84
2023/05/12 08:05:58;;;;;;;45.20;34.85;;;;;;;;;;6157047;23;20448;-84
2023/05/12 08:08:24;;;;;;;43.63;34.70;;;;;;;;;;6132389;23;20216;-83
2023/05/12 08:10:50;;;;;;;44.67;36.70;;;;;;;;;;6156608;23;20136;-83
2023/05/12 08:13:15;;;;;;;43.33;34.92;;;;;;;;;;6132267;23;20005;-84
2023/05/12 08:15:41;;;;;;;45.97;36.83;;;;;;;;;;6127140;23;20065;-83
2023/05/12 08:18:08;;;;;;;42.00;35.22;;;;;;;;;;6128909;23;20018;-83
2023/05/12 08:20:34;;;;;;;40.63;34.45;;;;;;;;;;6155233;23;20018;-83
2023/05/12 08:23:00;;;;;;;42.03;34.92;;;;;;;;;;6156542;23;20013;-83
2023/05/12 08:25:29;;;;;;;42.58;34.33;;;;;;;;;;6130515;23;20018;-83
2023/05/12 08:27:56;;;;;;;37.58;33.13;;;;;;;;;;6129920;23;20010;-82
2023/05/12 08:30:22;;;;;;;40.78;34.58;;;;;;;;;;6155055;23;20101;-83
2023/05/12 08:32:48;;;;;;;40.33;31.58;;;;;;;;;;6154881;23;20014;-83
2023/05/12 08:35:14;;;;;;;37.05;31.67;;;;;;;;;;6130449;23;20013;-83
2023/05/12 08:37:40;;;;;;;35.00;31.17;;;;;;;;;;6156697;23;20017;-84
2023/05/12 08:40:09;;;;;;;34.58;30.38;;;;;;;;;;6156452;23;20025;-84
2023/05/12 08:42:54;;;;;;;34.88;30.02;;;;;;;;;;6154666;23;20014;-83
2023/05/12 08:45:22;;;;;;;32.72;29.10;;;;;;;;;;6130673;23;20064;-83
2023/05/12 08:47:49;;;;;;;30.65;27.35;;;;;;;;;;6154202;23;20020;-83
2023/05/12 08:50:16;;;;;;;32.13;28.40;;;;;;;;;;6154216;23;20132;-83
2023/05/12 08:52:43;;;;;;;30.63;27.38;;;;;;;;;;6129022;23;20010;-83
2023/05/12 08:55:09;;;;;;;32.55;27.20;;;;;;;;;;6154458;23;20084;-84
2023/05/12 08:57:36;;;;;;;30.95;27.63;;;;;;;;;;6154908;23;20135;-84
2023/05/12 09:00:04;;;;;;;31.70;28.30;;;;;;;;;;6156555;23;20017;-84
2023/05/12 09:02:31;;;;;;;31.00;27.80;;;;;;;;;;6130068;23;20341;-83
2023/05/12 09:04:57;;;;;;;34.88;30.50;;;;;;;;;;6130410;23;20013;-84
2023/05/12 09:07:23;;;;;;;31.15;27.67;;;;;;;;;;6153866;23;20064;-84
2023/05/12 09:09:54;;;;;;;31.80;28.45;;;;;;;;;;6130872;23;20077;-83
2023/05/12 09:12:20;;;;;;;34.08;28.25;;;;;;;;;;6131207;23;20020;-83
2023/05/12 09:14:51;;;;;;;29.83;25.90;;;;;;;;;;6129600;23;20088;-83
2023/05/12 09:17:17;;;;;;;29.95;26.08;;;;;;;;;;6154508;23;20010;-83
2023/05/12 09:19:43;;;;;;;29.15;26.08;;;;;;;;;;6154583;23;20041;-84
2023/05/12 09:22:13;;;;;;;31.23;26.23;;;;;;;;;;6156420;23;20064;-84
2023/05/12 09:24:40;;;;;;;25.67;23.02;;;;;;;;;;6155172;23;20009;-84
2023/05/12 09:27:06;;;;;;;29.25;25.08;;;;;;;;;;6129107;23;20092;-84
2023/05/12 09:29:32;;;;;;;26.67;23.90;;;;;;;;;;6153818;23;20017;-84
2023/05/12 09:32:00;;;;;;;27.60;24.80;;;;;;;;;;6155346;23;20014;-83
2023/05/12 09:34:39;;;;;;;26.58;23.02;;;;;;;;;;6155337;23;20017;-84
2023/05/12 09:37:06;;;;;;;27.15;23.05;;;;;;;;;;6129506;23;20120;-84
2023/05/12 09:39:32;;;;;;;26.85;24.05;;;;;;;;;;6154509;23;20017;-83
2023/05/12 09:41:59;;;;;;;28.23;24.23;;;;;;;;;;6154768;23;20018;-84
2023/05/12 09:44:27;;;;;;;28.13;25.33;;;;;;;;;;6155056;23;20092;-84
2023/05/12 09:46:54;;;;;;;27.92;25.05;;;;;;;;;;6154724;23;20051;-84
2023/05/12 09:49:26;;;;;;;26.35;23.45;;;;;;;;;;6154274;23;20472;-84
2023/05/12 09:51:53;;;;;;;30.15;27.15;;;;;;;;;;6154844;23;20064;-84
2023/05/12 09:54:27;;;;;;;27.17;24.27;;;;;;;;;;6154166;23;20013;-84
2023/05/12 09:56:56;;;;;;;24.67;22.08;;;;;;;;;;6129472;23;20049;-84
2023/05/12 09:59:25;;;;;;;25.25;22.35;;;;;;;;;;6129803;23;20056;-82
2023/05/12 10:01:52;;;;;;;24.30;21.75;;;;;;;;;;6153591;23;20072;-81
2023/05/12 10:04:19;;;;;;;23.65;21.17;;;;;;;;;;6151879;23;20014;-80
2023/05/12 10:06:46;;;;;;;27.65;23.42;;;;;;;;;;6152791;23;20394;-80
2023/05/12 10:09:30;;;;;;;26.92;24.17;;;;;;;;;;6152109;23;20010;-80
2023/05/12 10:11:57;;;;;;;24.05;21.25;;;;;;;;;;6151911;23;20080;-84
2023/05/12 10:14:23;;;;;;;25.33;22.70;;;;;;;;;;6154983;23;20064;-84
2023/05/12 10:16:50;;;;;;;24.10;21.70;;;;;;;;;;6127184;23;20021;-82
2023/05/12 10:19:16;;;;;;;30.08;22.52;;;;;;;;;;6126851;23;20097;-81
2023/05/12 10:21:46;;;;;;;26.52;22.58;;;;;;;;;;6152203;23;20009;-83
2023/05/12 10:24:18;;;;;;;23.35;20.85;;;;;;;;;;6152532;23;20041;-83
2023/05/12 10:26:44;;;;;;;23.77;21.25;;;;;;;;;;6154450;23;20018;-81
2023/05/12 10:29:11;;;;;;;23.77;20.30;;;;;;;;;;6151545;23;20061;-82
2023/05/12 10:31:37;;;;;;;23.80;21.10;;;;;;;;;;6152923;23;20013;-83
2023/05/12 10:34:04;;;;;;;25.33;20.38;;;;;;;;;;6151823;23;20089;-83
2023/05/12 10:36:30;;;;;;;24.92;20.95;;;;;;;;;;6127667;23;20018;-83
2023/05/12 10:39:04;;;;;;;22.30;19.90;;;;;;;;;;6155215;23;20080;-82
2023/05/12 10:41:34;;;;;;;24.05;21.58;;;;;;;;;;6154828;23;20415;-84
2023/05/12 10:44:00;;;;;;;23.52;21.08;;;;;;;;;;6154362;23;20088;-83
2023/05/12 10:46:26;;;;;;;24.27;21.75;;;;;;;;;;6154515;23;20068;-83
2023/05/12 10:48:57;;;;;;;27.02;20.25;;;;;;;;;;6151737;23;20441;-83
2023/05/12 10:51:27;;;;;;;20.83;18.10;;;;;;;;;;6152336;23;20084;-82
2023/05/12 10:53:56;;;;;;;22.15;18.83;;;;;;;;;;6153058;23;20136;-82
2023/05/12 10:56:26;;;;;;;19.25;17.25;;;;;;;;;;6127727;23;20017;-82
2023/05/12 10:59:10;;;;;;;19.73;17.45;;;;;;;;;;6127730;23;20045;-83
2023/05/12 11:01:36;;;;;;;19.30;17.23;;;;;;;;;;6152516;23;20014;-83
2023/05/12 11:04:09;;;;;;;19.27;17.27;;;;;;;;;;6150435;23;20009;-83
2023/05/12 11:06:36;;;;;;;20.60;18.42;;;;;;;;;;6150335;23;20041;-83
2023/05/12 11:09:03;;;;;;;19.83;17.08;;;;;;;;;;6126201;23;20453;-83
2023/05/12 11:11:33;;;;;;;17.38;15.57;;;;;;;;;;6150510;23;20485;-83
2023/05/12 11:13:59;;;;;;;21.83;17.35;;;;;;;;;;6153322;23;20305;-83
2023/05/12 11:16:25;;;;;;;16.38;14.40;;;;;;;;;;6152291;23;20037;-83
2023/05/12 11:19:01;;;;;;;14.68;12.63;;;;;;;;;;6127468;23;20017;-83
2023/05/12 11:21:27;;;;;;;15.00;13.52;;;;;;;;;;6152340;23;20084;-83
2023/05/12 11:23:54;;;;;;;18.85;16.30;;;;;;;;;;6128171;23;20013;-83
2023/05/12 11:26:21;;;;;;;15.82;14.23;;;;;;;;;;6154255;23;20100;-83
2023/05/12 11:28:47;;;;;;;15.02;13.50;;;;;;;;;;6154503;23;20021;-83
2023/05/12 11:31:18;;;;;;;12.65;11.27;;;;;;;;;;6152263;23;20048;-83
2023/05/12 11:33:44;;;;;;;16.67;12.07;;;;;;;;;;6151983;23;20009;-83
2023/05/12 11:36:10;;;;;;;14.13;10.88;;;;;;;;;;6152271;23;20310;-82
2023/05/12 11:38:36;;;;;;;10.98;9.18;;;;;;;;;;6152364;23;20014;-83
2023/05/12 11:41:02;;;;;;;11.35;9.30;;;;;;;;;;6154333;23;20013;-83
2023/05/12 11:43:28;;;;;;;11.23;9.50;;;;;;;;;;6127747;23;20159;-83
2023/05/12 11:45:54;;;;;;;9.35;8.35;;;;;;;;;;6152415;23;20357;-83
2023/05/12 11:48:21;;;;;;;10.15;8.45;;;;;;;;;;6127148;23;20238;-83
2023/05/12 11:50:50;;;;;;;11.15;8.52;;;;;;;;;;6152820;23;20068;-83
2023/05/12 11:53:19;;;;;;;9.90;8.82;;;;;;;;;;6152585;23;20013;-83
2023/05/12 11:55:52;;;;;;;12.30;9.27;;;;;;;;;;6128045;23;20062;-83
2023/05/12 11:58:25;;;;;;;11.40;7.88;;;;;;;;;;6152493;23;20100;-82
2023/05/12 12:00:51;;;;;;;10.80;8.45;;;;;;;;;;6152044;23;20028;-83
2023/05/12 12:03:17;;;;;;;10.80;7.80;;;;;;;;;;6152619;23;20392;-83
2023/05/12 12:05:44;;;;;;;9.82;7.88;;;;;;;;;;6152401;23;20045;-83
2023/05/12 12:08:12;;;;;;;8.55;5.80;;;;;;;;;;6152628;23;20014;-82
2023/05/12 12:10:38;;;;;;;6.45;5.22;;;;;;;;;;6154389;23;20022;-83
2023/05/12 12:13:05;;;;;;;6.30;4.25;;;;;;;;;;6154368;23;20013;-83
2023/05/12 12:15:31;;;;;;;8.50;5.60;;;;;;;;;;6151513;23;20058;-82
2023/05/12 12:17:57;;;;;;;7.82;5.40;;;;;;;;;;6152791;23;20079;-83
2023/05/12 12:20:23;;;;;;;5.95;4.43;;;;;;;;;;6152108;23;20018;-82
2023/05/12 12:22:50;;;;;;;6.57;3.97;;;;;;;;;;6127530;23;20388;-83
2023/05/12 12:25:16;;;;;;;9.38;3.65;;;;;;;;;;6152105;23;20088;-82
2023/05/12 12:27:42;;;;;;;8.32;3.72;;;;;;;;;;6152001;23;20041;-82
2023/05/12 12:30:08;;;;;;;4.65;3.28;;;;;;;;;;6126887;23;20010;-82
2023/05/12 12:32:34;;;;;;;4.32;3.10;;;;;;;;;;6153852;23;20020;-83
2023/05/12 12:35:03;;;;;;;3.70;2.90;;;;;;;;;;6127509;23;20088;-82
2023/05/12 12:37:29;;;;;;;6.88;3.75;;;;;;;;;;6153733;23;20080;-82
2023/05/12 12:39:55;;;;;;;9.77;4.10;;;;;;;;;;6127424;23;20052;-82
2023/05/12 12:42:21;;;;;;;6.45;3.90;;;;;;;;;;6151728;23;20436;-82
2023/05/12 12:44:49;;;;;;;7.15;3.50;;;;;;;;;;6150822;23;20057;-82
2023/05/12 12:47:15;;;;;;;5.82;3.80;;;;;;;;;;6151329;23;20018;-83
2023/05/12 12:49:41;;;;;;;5.55;3.75;;;;;;;;;;6151714;23;20028;-83
2023/05/12 12:52:07;;;;;;;5.68;3.45;;;;;;;;;;6152972;23;20444;-83
2023/05/12 12:54:33;;;;;;;4.90;3.15;;;;;;;;;;6153417;23;20013;-83
2023/05/12 12:56:59;;;;;;;5.63;3.45;;;;;;;;;;6153440;23;20014;-83
2023/05/12 12:59:26;;;;;;;7.63;3.45;;;;;;;;;;6150696;23;20013;-82
2023/05/12 13:01:52;;;;;;;5.63;3.00;;;;;;;;;;6152954;23;20472;-83
2023/05/12 13:04:21;;;;;;;8.85;3.45;;;;;;;;;;6151371;23;20013;-83
2023/05/12 13:06:47;;;;;;;7.47;3.45;;;;;;;;;;6150884;23;20021;-83
2023/05/12 13:09:13;;;;;;;6.72;3.30;;;;;;;;;;6151497;23;20053;-82
2023/05/12 13:11:39;;;;;;;5.80;3.20;;;;;;;;;;6151487;23;20016;-83
2023/05/12 13:14:07;;;;;;;6.90;3.05;;;;;;;;;;6150999;23;20140;-79
2023/05/12 13:16:33;;;;;;;5.32;2.92;;;;;;;;;;6151115;23;20078;-82
2023/05/12 13:18:59;;;;;;;6.28;3.03;;;;;;;;;;6151182;23;20017;-83
2023/05/12 13:21:25;;;;;;;4.72;2.92;;;;;;;;;;6151099;23;20040;-82
2023/05/12 13:23:51;;;;;;;4.70;2.83;;;;;;;;;;6151156;23;20112;-81
2023/05/12 13:26:17;;;;;;;5.45;2.90;;;;;;;;;;6151825;23;20104;-83
2023/05/12 13:28:43;;;;;;;6.55;2.97;;;;;;;;;;6150609;23;20131;-83
2023/05/12 13:31:09;;;;;;;4.32;2.70;;;;;;;;;;6151717;23;20058;-82
2023/05/12 13:33:35;;;;;;;5.95;2.53;;;;;;;;;;6126840;23;20044;-82
2023/05/12 13:36:01;;;;;;;5.50;2.35;;;;;;;;;;6151259;23;20029;-82
2023/05/12 13:38:27;;;;;;;6.38;2.80;;;;;;;;;;6126698;23;20013;-83
2023/05/12 13:40:53;;;;;;;4.65;2.40;;;;;;;;;;6126581;23;20014;-82
2023/05/12 13:43:20;;;;;;;4.75;2.40;;;;;;;;;;6150753;23;20064;-82
2023/05/12 13:45:46;;;;;;;3.97;2.30;;;;;;;;;;6153041;23;20013;-82
2023/05/12 13:48:12;;;;;;;4.00;2.20;;;;;;;;;;6152493;23;20093;-82
2023/05/12 13:50:38;;;;;;;4.53;2.63;;;;;;;;;;6152638;23;20009;-82
2023/05/12 13:53:05;;;;;;;7.88;2.40;;;;;;;;;;6126410;23;20376;-82
2023/05/12 13:55:33;;;;;;;4.95;2.50;;;;;;;;;;6151050;23;20013;-82
2023/05/12 13:57:59;;;;;;;4.07;2.17;;;;;;;;;;6152203;23;20024;-83
2023/05/12 14:00:28;;;;;;;4.28;2.20;;;;;;;;;;6125849;23;20080;-84
2023/05/12 14:02:55;;;;;;;5.18;2.35;;;;;;;;;;6126212;23;20072;-84
2023/05/12 14:05:21;;;;;;;7.28;2.13;;;;;;;;;;6150747;23;20370;-84
2023/05/12 14:07:47;;;;;;;4.63;2.10;;;;;;;;;;6152640;23;20089;-84
2023/05/12 14:10:13;;;;;;;4.80;2.03;;;;;;;;;;6126590;23;20440;-84
2023/05/12 14:12:41;;;;;;;3.97;2.00;;;;;;;;;;6150851;23;20013;-84
2023/05/12 14:15:07;;;;;;;4.10;2.00;;;;;;;;;;6154485;23;20022;-83
2023/05/12 14:17:33;;;;;;;7.05;2.22;;;;;;;;;;6131232;23;20025;-84